sensor_id;sensor_type;location;lat;lon;timestamp;temperature;humidity
3402;DHT22;1714;49.756;8.610;2023-10-09T00:00:06;14.00;1.00
3402;DHT22;1714;49.756;8.610;2023-10-09T00:11:00;13.90;1.00
3402;DHT22;1714;49.756;8.610;2023-10-09T00:21:51;13.90;1.00
3402;DHT22;1714;49.756;8.610;2023-10-09T00:32:29;13.90;1.00
3402;DHT22;1714;49.756;8.610;2023-10-09T00:43:08;13.90;1.00
3402;DHT22;1714;49.756;8.610;2023-10-09T00:53:48;13.90;1.00
3402;DHT22;1714;49.756;8.610;2023-10-09T01:04:27;13.90;1.00
3402;DHT22;1714;49.756;8.610;2023-10-09T01:15:04;14.00;1.00
3402;DHT22;1714;49.756;8.610;2023-10-09T01:25:42;14.00;1.00
3402;DHT22;1714;49.756;8.610;2023-10-09T01:36:19;14.00;1.00
3402;DHT22;1714;49.756;8.610;2023-10-09T01:47:06;14.00;1.00
3402;DHT22;1714;49.756;8.610;2023-10-09T01:57:44;14.00;1.00
3402;DHT22;1714;49.756;8.610;2023-10-09T02:08:20;14.20;1.00
3402;DHT22;1714;49.756;8.610;2023-10-09T02:19:02;14.80;1.00
3402;DHT22;1714;49.756;8.610;2023-10-09T02:29:42;15.00;1.00
3402;DHT22;1714;49.756;8.610;2023-10-09T02:40:17;15.20;1.00
3402;DHT22;1714;49.756;8.610;2023-10-09T02:51:00;15.40;1.00
3402;DHT22;1714;49.756;8.610;2023-10-09T03:01:38;15.40;1.00
3402;DHT22;1714;49.756;8.610;2023-10-09T03:12:13;15.50;1.00
3402;DHT22;1714;49.756;8.610;2023-10-09T03:22:51;15.40;1.00
3402;DHT22;1714;49.756;8.610;2023-10-09T03:33:31;15.60;1.00
3402;DHT22;1714;49.756;8.610;2023-10-09T03:44:11;15.50;1.00
3402;DHT22;1714;49.756;8.610;2023-10-09T03:54:48;15.60;1.00
3402;DHT22;1714;49.756;8.610;2023-10-09T04:05:25;15.70;1.00
3402;DHT22;1714;49.756;8.610;2023-10-09T04:16:05;15.70;1.00
3402;DHT22;1714;49.756;8.610;2023-10-09T04:27:07;15.60;1.00
3402;DHT22;1714;49.756;8.610;2023-10-09T04:37:43;15.70;1.00
3402;DHT22;1714;49.756;8.610;2023-10-09T04:48:30;15.70;1.00
3402;DHT22;1714;49.756;8.610;2023-10-09T04:59:08;15.90;1.00
3402;DHT22;1714;49.756;8.610;2023-10-09T05:09:43;15.90;1.00
3402;DHT22;1714;49.756;8.610;2023-10-09T05:20:30;16.00;1.00
3402;DHT22;1714;49.756;8.610;2023-10-09T05:31:27;16.10;1.00
3402;DHT22;1714;49.756;8.610;2023-10-09T05:42:30;16.10;1.00
3402;DHT22;1714;49.756;8.610;2023-10-09T05:53:18;16.20;1.00
3402;DHT22;1714;49.756;8.610;2023-10-09T06:04:13;16.10;1.00
3402;DHT22;1714;49.756;8.610;2023-10-09T06:14:50;16.10;1.00
3402;DHT22;1714;49.756;8.610;2023-10-09T06:25:36;16.10;1.00
3402;DHT22;1714;49.756;8.610;2023-10-09T06:36:13;16.20;1.00
3402;DHT22;1714;49.756;8.610;2023-10-09T06:46:52;16.20;1.00
3402;DHT22;1714;49.756;8.610;2023-10-09T06:57:32;16.20;1.00
3402;DHT22;1714;49.756;8.610;2023-10-09T07:08:27;16.30;1.00
3402;DHT22;1714;49.756;8.610;2023-10-09T07:19:11;16.40;1.00
3402;DHT22;1714;49.756;8.610;2023-10-09T07:30:06;16.50;1.00
3402;DHT22;1714;49.756;8.610;2023-10-09T07:41:02;16.60;1.00
3402;DHT22;1714;49.756;8.610;2023-10-09T07:51:46;16.70;1.00
3402;DHT22;1714;49.756;8.610;2023-10-09T08:02:21;16.80;1.00
3402;DHT22;1714;49.756;8.610;2023-10-09T08:13:06;17.10;1.00
3402;DHT22;1714;49.756;8.610;2023-10-09T08:23:59;17.30;1.00
3402;DHT22;1714;49.756;8.610;2023-10-09T08:34:39;17.60;1.00
3402;DHT22;1714;49.756;8.610;2023-10-09T08:45:28;17.80;1.00
3402;DHT22;1714;49.756;8.610;2023-10-09T08:56:03;18.00;1.00
3402;DHT22;1714;49.756;8.610;2023-10-09T09:06:39;17.90;1.00
3402;DHT22;1714;49.756;8.610;2023-10-09T09:17:25;17.80;1.00
3402;DHT22;1714;49.756;8.610;2023-10-09T09:28:05;17.90;1.00
3402;DHT22;1714;49.756;8.610;2023-10-09T09:38:47;18.20;1.00
3402;DHT22;1714;49.756;8.610;2023-10-09T09:49:23;18.20;1.00
3402;DHT22;1714;49.756;8.610;2023-10-09T09:59:58;18.20;1.00
3402;DHT22;1714;49.756;8.610;2023-10-09T10:10:48;18.20;1.00
3402;DHT22;1714;49.756;8.610;2023-10-09T10:21:28;18.50;1.00
3402;DHT22;1714;49.756;8.610;2023-10-09T10:32:06;18.70;1.00
3402;DHT22;1714;49.756;8.610;2023-10-09T10:42:49;18.80;1.00
3402;DHT22;1714;49.756;8.610;2023-10-09T10:53:51;18.80;1.00
3402;DHT22;1714;49.756;8.610;2023-10-09T11:04:28;19.00;1.00
3402;DHT22;1714;49.756;8.610;2023-10-09T11:15:10;19.50;1.00
3402;DHT22;1714;49.756;8.610;2023-10-09T11:25:59;19.50;1.00
3402;DHT22;1714;49.756;8.610;2023-10-09T11:36:53;19.80;1.00
3402;DHT22;1714;49.756;8.610;2023-10-09T11:47:36;20.20;1.00
3402;DHT22;1714;49.756;8.610;2023-10-09T11:58:21;20.20;1.00
3402;DHT22;1714;49.756;8.610;2023-10-09T12:08:59;20.90;1.00
3402;DHT22;1714;49.756;8.610;2023-10-09T12:19:35;21.40;1.00
3402;DHT22;1714;49.756;8.610;2023-10-09T12:30:12;21.60;1.00
3402;DHT22;1714;49.756;8.610;2023-10-09T12:40:47;21.50;1.00
3402;DHT22;1714;49.756;8.610;2023-10-09T12:51:25;21.70;1.00
3402;DHT22;1714;49.756;8.610;2023-10-09T13:02:05;22.00;1.00
3402;DHT22;1714;49.756;8.610;2023-10-09T13:12:40;22.00;1.00
3402;DHT22;1714;49.756;8.610;2023-10-09T13:23:17;21.90;1.00
3402;DHT22;1714;49.756;8.610;2023-10-09T13:33:53;22.10;1.00
3402;DHT22;1714;49.756;8.610;2023-10-09T13:44:34;22.40;1.00
3402;DHT22;1714;49.756;8.610;2023-10-09T13:55:15;22.40;1.00
3402;DHT22;1714;49.756;8.610;2023-10-09T14:05:53;22.50;1.00
3402;DHT22;1714;49.756;8.610;2023-10-09T14:16:33;22.50;1.00
3402;DHT22;1714;49.756;8.610;2023-10-09T14:27:08;22.70;1.00
3402;DHT22;1714;49.756;8.610;2023-10-09T14:37:45;22.70;1.00
3402;DHT22;1714;49.756;8.610;2023-10-09T14:48:21;22.70;1.00
3402;DHT22;1714;49.756;8.610;2023-10-09T14:59:03;22.60;1.00
3402;DHT22;1714;49.756;8.610;2023-10-09T15:09:39;22.60;1.00
3402;DHT22;1714;49.756;8.610;2023-10-09T15:20:16;22.50;1.00
3402;DHT22;1714;49.756;8.610;2023-10-09T15:30:53;22.30;1.00
3402;DHT22;1714;49.756;8.610;2023-10-09T15:41:29;22.30;1.00
3402;DHT22;1714;49.756;8.610;2023-10-09T15:52:04;22.10;1.00
3402;DHT22;1714;49.756;8.610;2023-10-09T16:02:42;21.90;1.00
3402;DHT22;1714;49.756;8.610;2023-10-09T16:13:18;21.70;1.00
3402;DHT22;1714;49.756;8.610;2023-10-09T16:23:55;21.60;1.00
3402;DHT22;1714;49.756;8.610;2023-10-09T16:34:34;21.30;1.00
3402;DHT22;1714;49.756;8.610;2023-10-09T16:45:13;21.10;1.00
3402;DHT22;1714;49.756;8.610;2023-10-09T16:55:52;20.90;1.00
3402;DHT22;1714;49.756;8.610;2023-10-09T17:06:31;20.90;1.00
3402;DHT22;1714;49.756;8.610;2023-10-09T17:17:10;20.70;1.00
3402;DHT22;1714;49.756;8.610;2023-10-09T17:27:45;20.60;1.00
3402;DHT22;1714;49.756;8.610;2023-10-09T17:38:20;20.40;1.00
3402;DHT22;1714;49.756;8.610;2023-10-09T17:49:07;20.20;1.00
3402;DHT22;1714;49.756;8.610;2023-10-09T17:59:41;20.20;1.00
3402;DHT22;1714;49.756;8.610;2023-10-09T18:10:17;20.20;1.00
3402;DHT22;1714;49.756;8.610;2023-10-09T18:20:52;19.90;1.00
3402;DHT22;1714;49.756;8.610;2023-10-09T18:31:27;19.60;1.00
3402;DHT22;1714;49.756;8.610;2023-10-09T18:42:02;19.40;1.00
3402;DHT22;1714;49.756;8.610;2023-10-09T18:52:40;19.00;1.00
3402;DHT22;1714;49.756;8.610;2023-10-09T19:03:17;19.10;1.00
3402;DHT22;1714;49.756;8.610;2023-10-09T19:13:52;18.80;1.00
3402;DHT22;1714;49.756;8.610;2023-10-09T19:24:29;18.50;1.00
3402;DHT22;1714;49.756;8.610;2023-10-09T19:35:06;18.40;1.00
3402;DHT22;1714;49.756;8.610;2023-10-09T19:45:41;18.20;1.00
3402;DHT22;1714;49.756;8.610;2023-10-09T19:56:17;17.90;1.00
3402;DHT22;1714;49.756;8.610;2023-10-09T20:06:53;17.70;1.00
3402;DHT22;1714;49.756;8.610;2023-10-09T20:17:28;17.50;1.00
3402;DHT22;1714;49.756;8.610;2023-10-09T20:28:03;17.30;1.00
3402;DHT22;1714;49.756;8.610;2023-10-09T20:38:38;17.10;1.00
3402;DHT22;1714;49.756;8.610;2023-10-09T20:49:14;16.80;1.00
3402;DHT22;1714;49.756;8.610;2023-10-09T20:59:51;16.60;1.00
3402;DHT22;1714;49.756;8.610;2023-10-09T21:10:25;16.40;1.00
3402;DHT22;1714;49.756;8.610;2023-10-09T21:21:01;16.10;1.00
3402;DHT22;1714;49.756;8.610;2023-10-09T21:31:37;16.00;1.00
3402;DHT22;1714;49.756;8.610;2023-10-09T21:42:13;15.80;1.00
3402;DHT22;1714;49.756;8.610;2023-10-09T21:52:48;15.70;1.00
3402;DHT22;1714;49.756;8.610;2023-10-09T22:03:25;15.60;1.00
3402;DHT22;1714;49.756;8.610;2023-10-09T22:14:02;15.40;1.00
3402;DHT22;1714;49.756;8.610;2023-10-09T22:24:37;15.20;1.00
3402;DHT22;1714;49.756;8.610;2023-10-09T22:35:15;15.10;1.00
3402;DHT22;1714;49.756;8.610;2023-10-09T22:45:53;15.00;1.00
3402;DHT22;1714;49.756;8.610;2023-10-09T22:56:31;14.90;1.00
3402;DHT22;1714;49.756;8.610;2023-10-09T23:07:07;14.80;1.00
3402;DHT22;1714;49.756;8.610;2023-10-09T23:17:49;14.70;1.00
3402;DHT22;1714;49.756;8.610;2023-10-09T23:28:24;14.70;1.00
3402;DHT22;1714;49.756;8.610;2023-10-09T23:39:11;14.50;1.00
3402;DHT22;1714;49.756;8.610;2023-10-09T23:50:09;14.40;1.00
